YPA weather

Prince Albert Glass Field
Prince Albert, Saskatchewan, Canada

Public forecast

Using degrees Celsius for public forecast. Weather courtesy of forecast.io.

Current aviation weather report (METAR) for Prince Albert Glass Field

Retrieved 2019/12/06 05:00 UTC (27 minutes ago):

CYPA 060500Z 21002KT 15SM BKN240 M13/M15 A3006 RMK CS6 SLP220

Aviation forecast (TAF) for Prince Albert Glass Field

Retrieved 2019-12-06 01:42 UTC (4 hours ago):

TAF CYPA 060038Z 0601/0613 28005KT P6SM FEW020 SCT040 TEMPO 0601/0604 P6SM -SN BKN020 BKN040 FM060400 24008KT P6SM FEW020 FM061000 VRB03KT P6SM SKC PROB40 0610/0613 1/2SM FZFG VV002 RMK NXT FCST BY 060700Z